sensor_id;sensor_type;location;lat;lon;timestamp;pressure;altitude;pressure_sealevel;temperature;humidity
69153;BME280;56261;51.580;4.578;2023-04-19T00:01:21;102752.75;;;8.38;100.00
69153;BME280;56261;51.580;4.578;2023-04-19T00:03:47;102760.81;;;8.36;100.00
69153;BME280;56261;51.580;4.578;2023-04-19T00:06:12;102761.22;;;8.30;100.00
69153;BME280;56261;51.580;4.578;2023-04-19T00:08:40;102757.19;;;8.37;100.00
69153;BME280;56261;51.580;4.578;2023-04-19T00:11:07;102756.03;;;8.28;100.00
69153;BME280;56261;51.580;4.578;2023-04-19T00:13:32;102755.72;;;8.20;100.00
69153;BME280;56261;51.580;4.578;2023-04-19T00:15:57;102754.84;;;8.32;100.00
69153;BME280;56261;51.580;4.578;2023-04-19T00:18:23;102750.59;;;8.30;100.00
69153;BME280;56261;51.580;4.578;2023-04-19T00:20:48;102749.44;;;8.21;100.00
69153;BME280;56261;51.580;4.578;2023-04-19T00:23:14;102755.28;;;8.14;100.00
69153;BME280;56261;51.580;4.578;2023-04-19T00:25:39;102750.19;;;8.10;100.00
69153;BME280;56261;51.580;4.578;2023-04-19T00:28:05;102744.47;;;8.04;100.00
69153;BME280;56261;51.580;4.578;2023-04-19T00:30:30;102746.06;;;8.06;100.00
69153;BME280;56261;51.580;4.578;2023-04-19T00:32:56;102746.06;;;8.06;100.00
69153;BME280;56261;51.580;4.578;2023-04-19T00:35:21;102747.53;;;7.98;100.00
69153;BME280;56261;51.580;4.578;2023-04-19T00:37:47;102736.25;;;8.07;100.00
69153;BME280;56261;51.580;4.578;2023-04-19T00:40:12;102740.00;;;8.04;100.00
69153;BME280;56261;51.580;4.578;2023-04-19T00:42:37;102744.66;;;8.01;100.00
69153;BME280;56261;51.580;4.578;2023-04-19T00:45:03;102744.44;;;7.91;100.00
69153;BME280;56261;51.580;4.578;2023-04-19T00:47:29;102740.81;;;7.92;100.00
69153;BME280;56261;51.580;4.578;2023-04-19T00:49:54;102737.53;;;7.76;100.00
69153;BME280;56261;51.580;4.578;2023-04-19T00:52:21;102741.69;;;7.80;100.00
69153;BME280;56261;51.580;4.578;2023-04-19T00:54:47;102733.72;;;7.80;100.00
69153;BME280;56261;51.580;4.578;2023-04-19T00:57:14;102744.09;;;7.83;100.00
69153;BME280;56261;51.580;4.578;2023-04-19T00:59:40;102738.03;;;7.81;100.00
69153;BME280;56261;51.580;4.578;2023-04-19T01:02:06;102739.97;;;7.79;100.00
69153;BME280;56261;51.580;4.578;2023-04-19T01:04:32;102730.91;;;7.81;100.00
69153;BME280;56261;51.580;4.578;2023-04-19T01:06:57;102735.81;;;7.75;100.00
69153;BME280;56261;51.580;4.578;2023-04-19T01:09:23;102731.47;;;7.74;100.00
69153;BME280;56261;51.580;4.578;2023-04-19T01:11:49;102723.06;;;7.67;100.00
69153;BME280;56261;51.580;4.578;2023-04-19T01:14:15;102733.47;;;7.70;100.00
69153;BME280;56261;51.580;4.578;2023-04-19T01:16:40;102726.47;;;7.69;100.00
69153;BME280;56261;51.580;4.578;2023-04-19T01:19:06;102723.72;;;7.71;100.00
69153;BME280;56261;51.580;4.578;2023-04-19T01:21:31;102720.63;;;7.77;100.00
69153;BME280;56261;51.580;4.578;2023-04-19T01:23:57;102726.19;;;7.99;100.00
69153;BME280;56261;51.580;4.578;2023-04-19T01:26:23;102725.00;;;7.90;100.00
69153;BME280;56261;51.580;4.578;2023-04-19T01:28:49;102728.50;;;7.91;100.00
69153;BME280;56261;51.580;4.578;2023-04-19T01:31:14;102727.63;;;8.03;100.00
69153;BME280;56261;51.580;4.578;2023-04-19T01:33:39;102727.97;;;8.11;100.00
69153;BME280;56261;51.580;4.578;2023-04-19T01:36:05;102729.03;;;8.22;100.00
69153;BME280;56261;51.580;4.578;2023-04-19T01:38:31;102722.22;;;8.30;100.00
69153;BME280;56261;51.580;4.578;2023-04-19T01:40:56;102722.75;;;8.36;100.00
69153;BME280;56261;51.580;4.578;2023-04-19T01:43:22;102721.56;;;8.40;100.00
69153;BME280;56261;51.580;4.578;2023-04-19T01:45:47;102718.03;;;8.39;100.00
69153;BME280;56261;51.580;4.578;2023-04-19T01:48:13;102717.03;;;8.42;100.00
69153;BME280;56261;51.580;4.578;2023-04-19T01:50:38;102713.59;;;8.52;100.00
69153;BME280;56261;51.580;4.578;2023-04-19T01:53:03;102708.66;;;8.72;100.00
69153;BME280;56261;51.580;4.578;2023-04-19T01:55:30;102712.81;;;8.63;100.00
69153;BME280;56261;51.580;4.578;2023-04-19T01:57:55;102713.31;;;8.68;100.00
69153;BME280;56261;51.580;4.578;2023-04-19T02:00:21;102707.69;;;8.73;100.00
69153;BME280;56261;51.580;4.578;2023-04-19T02:02:49;102705.44;;;8.80;100.00
69153;BME280;56261;51.580;4.578;2023-04-19T02:05:15;102714.34;;;8.91;100.00
69153;BME280;56261;51.580;4.578;2023-04-19T02:07:40;102722.81;;;8.97;100.00
69153;BME280;56261;51.580;4.578;2023-04-19T02:10:08;102701.81;;;9.05;100.00
69153;BME280;56261;51.580;4.578;2023-04-19T02:12:35;102706.56;;;9.12;100.00
69153;BME280;56261;51.580;4.578;2023-04-19T02:15:00;102695.91;;;9.12;100.00
69153;BME280;56261;51.580;4.578;2023-04-19T02:17:28;102702.66;;;9.29;100.00
69153;BME280;56261;51.580;4.578;2023-04-19T02:19:54;102696.53;;;9.40;100.00
69153;BME280;56261;51.580;4.578;2023-04-19T02:22:20;102686.25;;;9.47;100.00
69153;BME280;56261;51.580;4.578;2023-04-19T02:24:45;102699.44;;;9.48;100.00
69153;BME280;56261;51.580;4.578;2023-04-19T02:27:11;102696.94;;;9.58;100.00
69153;BME280;56261;51.580;4.578;2023-04-19T02:29:37;102682.03;;;9.55;100.00
69153;BME280;56261;51.580;4.578;2023-04-19T02:32:03;102691.13;;;9.64;100.00
69153;BME280;56261;51.580;4.578;2023-04-19T02:34:33;102692.75;;;9.78;100.00
69153;BME280;56261;51.580;4.578;2023-04-19T02:36:59;102694.78;;;9.74;100.00
69153;BME280;56261;51.580;4.578;2023-04-19T02:39:25;102692.63;;;9.91;100.00
69153;BME280;56261;51.580;4.578;2023-04-19T02:41:50;102696.13;;;9.80;100.00
69153;BME280;56261;51.580;4.578;2023-04-19T02:44:16;102695.16;;;9.92;100.00
69153;BME280;56261;51.580;4.578;2023-04-19T02:46:47;102690.84;;;10.03;100.00
69153;BME280;56261;51.580;4.578;2023-04-19T02:49:13;102668.88;;;9.99;100.00
69153;BME280;56261;51.580;4.578;2023-04-19T02:51:38;102675.91;;;10.00;100.00
69153;BME280;56261;51.580;4.578;2023-04-19T02:54:04;102687.28;;;10.13;100.00
69153;BME280;56261;51.580;4.578;2023-04-19T02:56:29;102679.06;;;10.16;100.00
69153;BME280;56261;51.580;4.578;2023-04-19T02:58:55;102690.09;;;10.23;100.00
69153;BME280;56261;51.580;4.578;2023-04-19T03:01:21;102688.28;;;10.24;100.00
69153;BME280;56261;51.580;4.578;2023-04-19T03:03:46;102674.50;;;10.30;100.00
69153;BME280;56261;51.580;4.578;2023-04-19T03:06:11;102677.88;;;10.32;100.00
69153;BME280;56261;51.580;4.578;2023-04-19T03:08:37;102675.94;;;10.34;100.00
69153;BME280;56261;51.580;4.578;2023-04-19T03:11:02;102682.72;;;10.38;100.00
69153;BME280;56261;51.580;4.578;2023-04-19T03:13:28;102677.88;;;10.32;100.00
69153;BME280;56261;51.580;4.578;2023-04-19T03:15:53;102684.06;;;10.44;100.00
69153;BME280;56261;51.580;4.578;2023-04-19T03:18:19;102681.00;;;10.26;100.00
69153;BME280;56261;51.580;4.578;2023-04-19T03:20:44;102675.94;;;10.23;100.00
69153;BME280;56261;51.580;4.578;2023-04-19T03:23:10;102671.69;;;10.31;100.00
69153;BME280;56261;51.580;4.578;2023-04-19T03:25:35;102675.44;;;10.29;100.00
69153;BME280;56261;51.580;4.578;2023-04-19T03:28:01;102680.91;;;10.38;100.00
69153;BME280;56261;51.580;4.578;2023-04-19T03:30:26;102677.88;;;10.43;100.00
69153;BME280;56261;51.580;4.578;2023-04-19T03:32:52;102686.34;;;10.26;100.00
69153;BME280;56261;51.580;4.578;2023-04-19T03:35:17;102681.75;;;10.16;100.00
69153;BME280;56261;51.580;4.578;2023-04-19T03:37:42;102683.69;;;10.14;100.00
69153;BME280;56261;51.580;4.578;2023-04-19T03:40:08;102683.94;;;10.23;100.00
69153;BME280;56261;51.580;4.578;2023-04-19T03:42:34;102679.28;;;10.13;100.00
69153;BME280;56261;51.580;4.578;2023-04-19T03:45:00;102683.06;;;10.11;100.00
69153;BME280;56261;51.580;4.578;2023-04-19T03:47:25;102686.44;;;10.02;100.00
69153;BME280;56261;51.580;4.578;2023-04-19T03:49:50;102684.25;;;9.95;100.00
69153;BME280;56261;51.580;4.578;2023-04-19T03:52:16;102682.94;;;10.01;100.00
69153;BME280;56261;51.580;4.578;2023-04-19T03:54:41;102683.78;;;9.90;100.00
69153;BME280;56261;51.580;4.578;2023-04-19T03:57:07;102677.13;;;9.96;100.00
69153;BME280;56261;51.580;4.578;2023-04-19T03:59:33;102687.06;;;9.94;100.00
69153;BME280;56261;51.580;4.578;2023-04-19T04:01:59;102676.97;;;9.86;100.00
69153;BME280;56261;51.580;4.578;2023-04-19T04:04:24;102678.34;;;9.92;100.00
69153;BME280;56261;51.580;4.578;2023-04-19T04:06:50;102682.09;;;9.89;100.00
69153;BME280;56261;51.580;4.578;2023-04-19T04:09:15;102679.66;;;9.86;100.00
69153;BME280;56261;51.580;4.578;2023-04-19T04:11:40;102681.59;;;9.84;100.00
69153;BME280;56261;51.580;4.578;2023-04-19T04:14:06;102683.41;;;9.84;100.00
69153;BME280;56261;51.580;4.578;2023-04-19T04:16:31;102684.63;;;9.91;100.00
69153;BME280;56261;51.580;4.578;2023-04-19T04:18:57;102684.75;;;9.89;100.00
69153;BME280;56261;51.580;4.578;2023-04-19T04:21:22;102681.72;;;9.94;100.00
69153;BME280;56261;51.580;4.578;2023-04-19T04:23:49;102673.75;;;9.94;100.00
69153;BME280;56261;51.580;4.578;2023-04-19T04:26:14;102679.28;;;9.80;100.00
69153;BME280;56261;51.580;4.578;2023-04-19T04:28:39;102680.63;;;9.85;100.00
69153;BME280;56261;51.580;4.578;2023-04-19T04:31:05;102683.88;;;9.89;100.00
69153;BME280;56261;51.580;4.578;2023-04-19T04:33:30;102684.50;;;9.81;100.00
69153;BME280;56261;51.580;4.578;2023-04-19T04:35:56;102691.38;;;9.72;100.00
69153;BME280;56261;51.580;4.578;2023-04-19T04:38:23;102699.03;;;9.77;100.00
69153;BME280;56261;51.580;4.578;2023-04-19T04:40:52;102688.44;;;9.64;100.00
69153;BME280;56261;51.580;4.578;2023-04-19T04:43:22;102690.97;;;9.54;100.00
69153;BME280;56261;51.580;4.578;2023-04-19T04:45:48;102695.13;;;9.59;100.00
69153;BME280;56261;51.580;4.578;2023-04-19T04:48:13;102685.06;;;9.62;100.00
69153;BME280;56261;51.580;4.578;2023-04-19T04:50:39;102679.59;;;9.52;100.00
69153;BME280;56261;51.580;4.578;2023-04-19T04:53:04;102703.69;;;9.62;100.00
69153;BME280;56261;51.580;4.578;2023-04-19T04:55:30;102700.19;;;9.62;100.00
69153;BME280;56261;51.580;4.578;2023-04-19T04:57:55;102706.53;;;9.72;100.00
69153;BME280;56261;51.580;4.578;2023-04-19T05:00:22;102705.91;;;9.68;100.00
69153;BME280;56261;51.580;4.578;2023-04-19T05:02:47;102713.72;;;9.83;100.00
69153;BME280;56261;51.580;4.578;2023-04-19T05:05:13;102696.00;;;9.82;100.00
69153;BME280;56261;51.580;4.578;2023-04-19T05:07:38;102702.03;;;9.72;100.00
69153;BME280;56261;51.580;4.578;2023-04-19T05:10:04;102711.50;;;9.76;100.00
69153;BME280;56261;51.580;4.578;2023-04-19T05:12:30;102703.97;;;9.70;100.00
69153;BME280;56261;51.580;4.578;2023-04-19T05:14:55;102707.75;;;9.79;100.00
69153;BME280;56261;51.580;4.578;2023-04-19T05:17:21;102705.34;;;9.76;100.00
69153;BME280;56261;51.580;4.578;2023-04-19T05:19:46;102710.06;;;9.84;100.00
69153;BME280;56261;51.580;4.578;2023-04-19T05:22:11;102715.50;;;9.82;100.00
69153;BME280;56261;51.580;4.578;2023-04-19T05:24:37;102701.22;;;9.83;100.00
69153;BME280;56261;51.580;4.578;2023-04-19T05:27:02;102703.25;;;9.80;100.00
69153;BME280;56261;51.580;4.578;2023-04-19T05:29:28;102695.25;;;9.80;100.00
69153;BME280;56261;51.580;4.578;2023-04-19T05:31:53;102700.56;;;9.68;100.00
69153;BME280;56261;51.580;4.578;2023-04-19T05:34:19;102705.44;;;9.74;100.00
69153;BME280;56261;51.580;4.578;2023-04-19T05:36:44;102701.78;;;9.64;100.00
69153;BME280;56261;51.580;4.578;2023-04-19T05:39:10;102706.63;;;9.70;100.00
69153;BME280;56261;51.580;4.578;2023-04-19T05:41:35;102704.56;;;9.63;100.00
69153;BME280;56261;51.580;4.578;2023-04-19T05:44:00;102706.88;;;9.67;100.00
69153;BME280;56261;51.580;4.578;2023-04-19T05:46:26;102703.84;;;9.61;100.00
69153;BME280;56261;51.580;4.578;2023-04-19T05:48:51;102705.78;;;9.70;100.00
69153;BME280;56261;51.580;4.578;2023-04-19T05:51:16;102700.34;;;9.71;100.00
69153;BME280;56261;51.580;4.578;2023-04-19T05:53:43;102712.00;;;9.93;100.00
69153;BME280;56261;51.580;4.578;2023-04-19T05:56:09;102703.44;;;10.01;100.00
69153;BME280;56261;51.580;4.578;2023-04-19T05:58:34;102697.84;;;10.04;100.00
69153;BME280;56261;51.580;4.578;2023-04-19T06:01:01;102719.19;;;10.26;100.00
69153;BME280;56261;51.580;4.578;2023-04-19T06:03:26;102712.16;;;10.25;100.00
69153;BME280;56261;51.580;4.578;2023-04-19T06:05:52;102709.63;;;10.35;100.00
69153;BME280;56261;51.580;4.578;2023-04-19T06:08:17;102717.38;;;10.38;100.00
69153;BME280;56261;51.580;4.578;2023-04-19T06:10:43;102708.50;;;10.60;100.00
69153;BME280;56261;51.580;4.578;2023-04-19T06:13:11;102711.78;;;10.75;100.00
69153;BME280;56261;51.580;4.578;2023-04-19T06:15:36;102707.44;;;10.74;100.00
69153;BME280;56261;51.580;4.578;2023-04-19T06:18:04;102706.75;;;10.93;100.00
69153;BME280;56261;51.580;4.578;2023-04-19T06:20:37;102711.50;;;11.21;100.00
69153;BME280;56261;51.580;4.578;2023-04-19T06:23:03;102715.81;;;11.34;100.00
69153;BME280;56261;51.580;4.578;2023-04-19T06:25:28;102725.16;;;11.39;100.00
69153;BME280;56261;51.580;4.578;2023-04-19T06:27:54;102728.72;;;10.96;100.00
69153;BME280;56261;51.580;4.578;2023-04-19T06:30:19;102712.63;;;11.40;100.00
69153;BME280;56261;51.580;4.578;2023-04-19T06:32:45;102713.88;;;11.04;100.00
69153;BME280;56261;51.580;4.578;2023-04-19T06:35:10;102723.25;;;11.30;100.00
69153;BME280;56261;51.580;4.578;2023-04-19T06:37:36;102722.63;;;11.06;100.00
69153;BME280;56261;51.580;4.578;2023-04-19T06:40:02;102719.81;;;11.07;100.00
69153;BME280;56261;51.580;4.578;2023-04-19T06:42:29;102722.78;;;11.25;100.00
69153;BME280;56261;51.580;4.578;2023-04-19T06:44:54;102730.13;;;11.00;100.00
69153;BME280;56261;51.580;4.578;2023-04-19T06:47:21;102724.75;;;11.23;100.00
69153;BME280;56261;51.580;4.578;2023-04-19T06:49:46;102702.25;;;10.93;100.00
69153;BME280;56261;51.580;4.578;2023-04-19T06:52:12;102725.09;;;11.18;100.00
69153;BME280;56261;51.580;4.578;2023-04-19T06:54:37;102726.94;;;11.50;100.00
69153;BME280;56261;51.580;4.578;2023-04-19T06:57:03;102720.47;;;11.74;100.00
69153;BME280;56261;51.580;4.578;2023-04-19T06:59:28;102724.19;;;11.82;100.00
69153;BME280;56261;51.580;4.578;2023-04-19T07:01:55;102717.06;;;11.72;100.00
69153;BME280;56261;51.580;4.578;2023-04-19T07:04:22;102720.13;;;12.09;100.00
69153;BME280;56261;51.580;4.578;2023-04-19T07:06:48;102728.78;;;12.22;100.00
69153;BME280;56261;51.580;4.578;2023-04-19T07:09:14;102727.56;;;12.36;100.00
69153;BME280;56261;51.580;4.578;2023-04-19T07:11:40;102727.03;;;12.42;100.00
69153;BME280;56261;51.580;4.578;2023-04-19T07:14:05;102727.13;;;12.81;100.00
69153;BME280;56261;51.580;4.578;2023-04-19T07:16:31;102737.22;;;12.18;100.00
69153;BME280;56261;51.580;4.578;2023-04-19T07:18:56;102729.81;;;12.00;100.00
69153;BME280;56261;51.580;4.578;2023-04-19T07:21:22;102736.28;;;12.29;100.00
69153;BME280;56261;51.580;4.578;2023-04-19T07:23:50;102736.09;;;12.51;100.00
69153;BME280;56261;51.580;4.578;2023-04-19T07:26:16;102732.47;;;12.21;100.00
69153;BME280;56261;51.580;4.578;2023-04-19T07:28:41;102741.31;;;12.53;100.00
69153;BME280;56261;51.580;4.578;2023-04-19T07:31:07;102738.50;;;12.54;100.00
69153;BME280;56261;51.580;4.578;2023-04-19T07:33:33;102740.53;;;12.72;100.00
69153;BME280;56261;51.580;4.578;2023-04-19T07:35:58;102733.53;;;13.09;100.00
69153;BME280;56261;51.580;4.578;2023-04-19T07:38:24;102742.78;;;12.66;100.00
69153;BME280;56261;51.580;4.578;2023-04-19T07:40:49;102749.38;;;12.62;100.00
69153;BME280;56261;51.580;4.578;2023-04-19T07:43:15;102734.69;;;12.57;100.00
69153;BME280;56261;51.580;4.578;2023-04-19T07:45:40;102744.03;;;12.62;100.00
69153;BME280;56261;51.580;4.578;2023-04-19T07:48:06;102747.88;;;12.79;100.00
69153;BME280;56261;51.580;4.578;2023-04-19T07:50:31;102731.13;;;13.26;100.00
69153;BME280;56261;51.580;4.578;2023-04-19T07:52:57;102741.44;;;13.21;100.00
69153;BME280;56261;51.580;4.578;2023-04-19T07:55:22;102744.03;;;12.62;100.00
69153;BME280;56261;51.580;4.578;2023-04-19T07:57:48;102736.78;;;13.13;100.00
69153;BME280;56261;51.580;4.578;2023-04-19T08:00:15;102733.88;;;13.36;100.00
69153;BME280;56261;51.580;4.578;2023-04-19T08:02:44;102738.94;;;13.29;100.00
69153;BME280;56261;51.580;4.578;2023-04-19T08:05:16;102727.44;;;14.32;100.00
69153;BME280;56261;51.580;4.578;2023-04-19T08:07:42;102736.03;;;13.99;100.00
69153;BME280;56261;51.580;4.578;2023-04-19T08:10:08;102726.78;;;13.74;100.00
69153;BME280;56261;51.580;4.578;2023-04-19T08:12:34;102721.00;;;13.59;100.00
69153;BME280;56261;51.580;4.578;2023-04-19T08:15:01;102723.53;;;13.80;100.00
69153;BME280;56261;51.580;4.578;2023-04-19T08:17:26;102721.34;;;14.40;100.00
69153;BME280;56261;51.580;4.578;2023-04-19T08:19:52;102717.84;;;14.30;100.00
69153;BME280;56261;51.580;4.578;2023-04-19T08:22:18;102727.09;;;14.18;100.00
69153;BME280;56261;51.580;4.578;2023-04-19T08:24:44;102716.25;;;14.00;100.00
69153;BME280;56261;51.580;4.578;2023-04-19T08:27:10;102716.56;;;13.97;100.00
69153;BME280;56261;51.580;4.578;2023-04-19T08:29:36;102712.47;;;14.30;100.00
69153;BME280;56261;51.580;4.578;2023-04-19T08:32:03;102720.38;;;14.87;100.00
69153;BME280;56261;51.580;4.578;2023-04-19T08:34:29;102719.56;;;15.04;100.00
69153;BME280;56261;51.580;4.578;2023-04-19T08:36:54;102723.13;;;14.77;100.00
69153;BME280;56261;51.580;4.578;2023-04-19T08:39:20;102717.22;;;15.63;100.00
69153;BME280;56261;51.580;4.578;2023-04-19T08:41:47;102723.31;;;14.38;100.00
69153;BME280;56261;51.580;4.578;2023-04-19T08:44:13;102737.44;;;14.40;100.00
69153;BME280;56261;51.580;4.578;2023-04-19T08:46:39;102730.22;;;14.78;100.00
69153;BME280;56261;51.580;4.578;2023-04-19T08:49:07;102730.38;;;14.02;100.00
69153;BME280;56261;51.580;4.578;2023-04-19T08:51:33;102715.03;;;14.59;100.00
69153;BME280;56261;51.580;4.578;2023-04-19T08:54:00;102712.00;;;14.72;100.00
69153;BME280;56261;51.580;4.578;2023-04-19T08:56:28;102708.03;;;15.48;100.00
69153;BME280;56261;51.580;4.578;2023-04-19T08:58:54;102702.88;;;15.54;100.00
69153;BME280;56261;51.580;4.578;2023-04-19T09:01:20;102712.66;;;14.56;100.00
69153;BME280;56261;51.580;4.578;2023-04-19T09:03:46;102706.00;;;15.68;100.00
69153;BME280;56261;51.580;4.578;2023-04-19T09:06:11;102701.19;;;15.18;100.00
69153;BME280;56261;51.580;4.578;2023-04-19T09:08:38;102699.59;;;15.07;100.00
69153;BME280;56261;51.580;4.578;2023-04-19T09:11:04;102691.75;;;14.95;100.00
69153;BME280;56261;51.580;4.578;2023-04-19T09:13:30;102696.28;;;15.13;100.00
69153;BME280;56261;51.580;4.578;2023-04-19T09:15:56;102694.00;;;15.36;100.00
69153;BME280;56261;51.580;4.578;2023-04-19T09:18:24;102688.06;;;16.03;99.18
69153;BME280;56261;51.580;4.578;2023-04-19T09:20:51;102692.06;;;14.92;100.00
69153;BME280;56261;51.580;4.578;2023-04-19T09:23:22;102685.94;;;15.36;100.00
69153;BME280;56261;51.580;4.578;2023-04-19T09:25:59;102691.84;;;15.04;100.00
69153;BME280;56261;51.580;4.578;2023-04-19T09:28:26;102680.28;;;16.34;97.58
69153;BME280;56261;51.580;4.578;2023-04-19T09:30:52;102691.78;;;16.44;96.78
69153;BME280;56261;51.580;4.578;2023-04-19T09:33:31;102683.81;;;15.92;97.06
69153;BME280;56261;51.580;4.578;2023-04-19T09:35:58;102689.22;;;16.00;96.18
69153;BME280;56261;51.580;4.578;2023-04-19T09:38:23;102680.16;;;16.01;96.34
69153;BME280;56261;51.580;4.578;2023-04-19T09:40:49;102680.50;;;16.06;93.80
69153;BME280;56261;51.580;4.578;2023-04-19T09:43:22;102682.41;;;15.62;95.24
69153;BME280;56261;51.580;4.578;2023-04-19T09:45:49;102674.47;;;15.78;94.23
69153;BME280;56261;51.580;4.578;2023-04-19T09:48:15;102673.94;;;15.74;94.18
69153;BME280;56261;51.580;4.578;2023-04-19T09:50:55;102669.22;;;16.45;92.24
69153;BME280;56261;51.580;4.578;2023-04-19T09:53:22;102680.38;;;16.16;90.58
69153;BME280;56261;51.580;4.578;2023-04-19T09:55:48;102675.28;;;15.52;89.73
69153;BME280;56261;51.580;4.578;2023-04-19T09:58:15;102665.09;;;16.16;92.35
69153;BME280;56261;51.580;4.578;2023-04-19T10:00:42;102674.56;;;15.94;88.94
69153;BME280;56261;51.580;4.578;2023-04-19T10:03:09;102669.00;;;15.70;90.28
69153;BME280;56261;51.580;4.578;2023-04-19T10:05:38;102681.69;;;16.12;90.35
69153;BME280;56261;51.580;4.578;2023-04-19T10:08:09;102672.84;;;15.41;92.05
69153;BME280;56261;51.580;4.578;2023-04-19T10:10:36;102669.53;;;15.47;93.07
69153;BME280;56261;51.580;4.578;2023-04-19T10:13:03;102666.50;;;16.03;89.50
69153;BME280;56261;51.580;4.578;2023-04-19T10:15:30;102667.91;;;15.54;89.41
69153;BME280;56261;51.580;4.578;2023-04-19T10:17:56;102665.03;;;15.74;90.27
69153;BME280;56261;51.580;4.578;2023-04-19T10:20:25;102668.59;;;15.56;88.73
69153;BME280;56261;51.580;4.578;2023-04-19T10:22:55;102661.28;;;15.49;90.39
69153;BME280;56261;51.580;4.578;2023-04-19T10:25:27;102666.72;;;15.13;87.92
69153;BME280;56261;51.580;4.578;2023-04-19T10:27:52;102666.59;;;15.14;92.76
69153;BME280;56261;51.580;4.578;2023-04-19T10:30:19;102661.13;;;15.06;88.20
69153;BME280;56261;51.580;4.578;2023-04-19T10:32:51;102659.75;;;14.84;90.16
69153;BME280;56261;51.580;4.578;2023-04-19T10:35:19;102667.88;;;15.28;88.68
69153;BME280;56261;51.580;4.578;2023-04-19T10:38:13;102665.97;;;15.21;87.05
69153;BME280;56261;51.580;4.578;2023-04-19T10:40:58;102670.66;;;14.65;89.39
69153;BME280;56261;51.580;4.578;2023-04-19T10:48:31;102679.34;;;14.49;85.53
69153;BME280;56261;51.580;4.578;2023-04-19T10:51:16;102662.59;;;15.01;85.10
69153;BME280;56261;51.580;4.578;2023-04-19T10:56:19;102678.47;;;14.58;76.52
69153;BME280;56261;51.580;4.578;2023-04-19T11:01:36;102668.94;;;14.82;79.70
69153;BME280;56261;51.580;4.578;2023-04-19T11:04:04;102655.75;;;15.06;72.00
69153;BME280;56261;51.580;4.578;2023-04-19T11:06:30;102669.66;;;14.84;79.18
69153;BME280;56261;51.580;4.578;2023-04-19T11:08:56;102664.66;;;14.43;77.84
69153;BME280;56261;51.580;4.578;2023-04-19T11:11:22;102667.63;;;14.68;74.95
69153;BME280;56261;51.580;4.578;2023-04-19T11:13:49;102654.13;;;15.13;73.70
69153;BME280;56261;51.580;4.578;2023-04-19T11:16:15;102658.28;;;14.90;70.52
69153;BME280;56261;51.580;4.578;2023-04-19T11:18:40;102659.97;;;14.91;66.33
69153;BME280;56261;51.580;4.578;2023-04-19T11:21:06;102659.22;;;14.99;69.95
69153;BME280;56261;51.580;4.578;2023-04-19T11:23:31;102668.19;;;14.71;64.85
69153;BME280;56261;51.580;4.578;2023-04-19T11:25:57;102652.16;;;14.52;68.13
69153;BME280;56261;51.580;4.578;2023-04-19T11:28:23;102638.94;;;14.86;64.55
69153;BME280;56261;51.580;4.578;2023-04-19T11:30:48;102633.50;;;14.96;66.15
69153;BME280;56261;51.580;4.578;2023-04-19T11:33:14;102647.19;;;14.85;69.52
69153;BME280;56261;51.580;4.578;2023-04-19T11:35:39;102633.19;;;15.43;67.69
69153;BME280;56261;51.580;4.578;2023-04-19T11:38:07;102640.00;;;15.29;66.25
69153;BME280;56261;51.580;4.578;2023-04-19T11:40:32;102625.25;;;15.15;69.84
69153;BME280;56261;51.580;4.578;2023-04-19T11:43:00;102633.56;;;14.86;65.67
69153;BME280;56261;51.580;4.578;2023-04-19T11:47:53;102635.78;;;14.55;66.23
69153;BME280;56261;51.580;4.578;2023-04-19T11:50:35;102619.84;;;14.71;67.75
69153;BME280;56261;51.580;4.578;2023-04-19T11:53:17;102650.47;;;14.79;66.72
69153;BME280;56261;51.580;4.578;2023-04-19T11:55:54;102628.41;;;14.57;68.81
69153;BME280;56261;51.580;4.578;2023-04-19T11:58:28;102631.88;;;14.67;65.13
69153;BME280;56261;51.580;4.578;2023-04-19T12:01:01;102633.59;;;14.41;62.50
69153;BME280;56261;51.580;4.578;2023-04-19T12:03:28;102632.94;;;14.57;65.85
69153;BME280;56261;51.580;4.578;2023-04-19T12:06:00;102639.78;;;14.41;63.95
69153;BME280;56261;51.580;4.578;2023-04-19T12:08:37;102612.91;;;14.87;70.72
69153;BME280;56261;51.580;4.578;2023-04-19T12:11:04;102616.44;;;14.51;62.52
69153;BME280;56261;51.580;4.578;2023-04-19T12:13:30;102622.44;;;14.63;65.91
69153;BME280;56261;51.580;4.578;2023-04-19T12:15:56;102610.00;;;15.16;65.36
69153;BME280;56261;51.580;4.578;2023-04-19T12:18:22;102614.13;;;15.10;58.52
69153;BME280;56261;51.580;4.578;2023-04-19T12:20:49;102615.03;;;15.19;56.14
69153;BME280;56261;51.580;4.578;2023-04-19T12:23:17;102619.09;;;14.33;58.95
69153;BME280;56261;51.580;4.578;2023-04-19T12:25:44;102612.53;;;14.64;63.07
69153;BME280;56261;51.580;4.578;2023-04-19T12:28:11;102612.22;;;15.21;60.76
69153;BME280;56261;51.580;4.578;2023-04-19T12:30:39;102605.38;;;15.08;57.93
69153;BME280;56261;51.580;4.578;2023-04-19T12:33:06;102605.88;;;14.86;61.68
69153;BME280;56261;51.580;4.578;2023-04-19T12:35:32;102602.19;;;15.05;59.90
69153;BME280;56261;51.580;4.578;2023-04-19T12:37:58;102591.69;;;15.20;57.67
69153;BME280;56261;51.580;4.578;2023-04-19T12:40:25;102607.59;;;15.13;58.00
69153;BME280;56261;51.580;4.578;2023-04-19T12:42:51;102607.50;;;14.79;60.17
69153;BME280;56261;51.580;4.578;2023-04-19T12:45:18;102595.97;;;15.30;57.07
69153;BME280;56261;51.580;4.578;2023-04-19T12:47:44;102597.19;;;15.36;54.98
69153;BME280;56261;51.580;4.578;2023-04-19T12:50:12;102580.91;;;14.93;54.38
69153;BME280;56261;51.580;4.578;2023-04-19T12:52:37;102601.66;;;15.27;55.36
69153;BME280;56261;51.580;4.578;2023-04-19T12:55:03;102590.31;;;15.42;54.54